createdAt,value
2023-01-03T00:02:01.301Z,66.30
2023-01-03T00:04:28.590Z,66.45
2023-01-03T00:06:55.650Z,67.34
2023-01-03T00:09:24.138Z,67.91
2023-01-03T00:12:11.761Z,68.61
2023-01-03T00:14:41.252Z,70.08
2023-01-03T00:17:09.834Z,71.05
2023-01-03T00:19:40.176Z,71.38
2023-01-03T00:22:08.277Z,71.76
2023-01-03T00:24:35.696Z,72.18
2023-01-03T00:27:02.945Z,72.63
2023-01-03T00:29:33.487Z,72.89
2023-01-03T00:32:00.843Z,73.30
2023-01-03T00:34:28.196Z,73.64
2023-01-03T00:36:55.794Z,73.93
2023-01-03T00:39:24.124Z,74.17
2023-01-03T00:41:51.794Z,74.39
2023-01-03T00:44:19.567Z,74.46
2023-01-03T00:46:46.497Z,74.77
2023-01-03T00:49:13.535Z,74.83
2023-01-03T00:51:41.509Z,74.80
2023-01-03T00:54:10.110Z,74.72
2023-01-03T00:56:43.839Z,74.79
2023-01-03T00:59:12.179Z,74.78
2023-01-03T01:01:46.780Z,74.83
2023-01-03T01:04:22.454Z,74.86
2023-01-03T01:06:56.384Z,74.75
2023-01-03T01:09:26.249Z,74.55
2023-01-03T01:11:54.258Z,74.36
2023-01-03T01:14:23.237Z,74.27
2023-01-03T01:16:57.640Z,74.18
2023-01-03T01:19:28.099Z,74.27
2023-01-03T01:21:55.964Z,74.32
2023-01-03T01:24:22.873Z,74.36
2023-01-03T01:26:50.048Z,74.29
2023-01-03T01:29:18.431Z,74.38
2023-01-03T01:31:46.205Z,74.41
2023-01-03T01:34:14.069Z,74.48
2023-01-03T01:36:42.293Z,74.54
2023-01-03T01:39:18.223Z,74.63
2023-01-03T01:42:05.500Z,74.65
2023-01-03T01:44:54.281Z,74.62
2023-01-03T01:47:27.667Z,74.80
2023-01-03T01:50:10.295Z,74.80
2023-01-03T01:52:41.937Z,74.82
2023-01-03T01:55:13.320Z,74.81
2023-01-03T01:57:41.601Z,74.71
2023-01-03T02:00:10.049Z,74.62
2023-01-03T02:02:46.356Z,74.61
2023-01-03T02:05:17.355Z,74.52
2023-01-03T02:07:48.493Z,74.49
2023-01-03T02:10:15.860Z,74.47
2023-01-03T02:13:08.327Z,74.40
2023-01-03T02:15:38.231Z,74.50
2023-01-03T02:18:32.930Z,74.23
2023-01-03T02:21:20.317Z,74.20
2023-01-03T02:23:49.921Z,74.11
2023-01-03T02:26:57.512Z,73.81
2023-01-03T02:29:43.219Z,73.78
2023-01-03T02:32:24.089Z,73.80
2023-01-03T02:35:03.210Z,73.72
2023-01-03T02:37:49.208Z,73.67
2023-01-03T02:40:25.163Z,73.76
2023-01-03T02:43:05.171Z,73.77
2023-01-03T02:46:06.604Z,73.90
2023-01-03T02:48:41.592Z,73.91
2023-01-03T02:51:33.535Z,73.83
2023-01-03T02:54:03.125Z,73.82
2023-01-03T02:56:59.589Z,73.76
2023-01-03T02:59:37.903Z,73.56
2023-01-03T03:02:06.613Z,73.46
2023-01-03T03:04:36.270Z,73.51
2023-01-03T03:07:11.022Z,73.45
2023-01-03T03:09:57.933Z,73.45
2023-01-03T03:12:46.886Z,73.50
2023-01-03T03:15:17.085Z,73.61
2023-01-03T03:17:46.759Z,73.48
2023-01-03T03:20:35.269Z,73.56
2023-01-03T03:23:30.799Z,73.49
2023-01-03T03:26:11.673Z,73.49
2023-01-03T03:28:43.858Z,73.43
2023-01-03T03:31:23.194Z,73.38
2023-01-03T03:34:11.086Z,73.31
2023-01-03T03:36:53.513Z,73.16
2023-01-03T03:39:40.431Z,73.12
2023-01-03T03:42:54.881Z,73.19
2023-01-03T03:45:32.475Z,73.19
2023-01-03T03:48:12.147Z,73.10
2023-01-03T03:50:50.836Z,73.08
2023-01-03T03:53:24.024Z,73.02
2023-01-03T03:55:56.113Z,72.99
2023-01-03T03:58:29.116Z,72.84
2023-01-03T04:00:57.325Z,72.80
2023-01-03T04:03:25.564Z,72.74
2023-01-03T04:06:13.544Z,72.61
2023-01-03T04:08:40.908Z,72.56
2023-01-03T04:11:08.265Z,72.61
2023-01-03T04:13:37.660Z,72.64
2023-01-03T04:16:06.674Z,72.49
2023-01-03T04:18:34.725Z,72.48
2023-01-03T04:21:01.669Z,72.31
2023-01-03T04:23:28.719Z,72.24
2023-01-03T04:25:55.556Z,72.14
2023-01-03T04:28:22.772Z,72.11
2023-01-03T04:30:50.162Z,72.16
2023-01-03T04:33:17.304Z,72.22
2023-01-03T04:35:44.251Z,72.41
2023-01-03T04:38:11.330Z,72.60
2023-01-03T04:40:38.455Z,72.89
2023-01-03T04:43:24.653Z,73.15
2023-01-03T04:45:51.760Z,73.26
2023-01-03T04:48:20.501Z,73.52
2023-01-03T04:50:57.663Z,73.98
2023-01-03T04:53:26.983Z,74.21
2023-01-03T04:55:58.490Z,74.55
2023-01-03T04:58:26.307Z,74.89
2023-01-03T05:00:59.965Z,75.11
2023-01-03T05:03:28.273Z,75.44
2023-01-03T05:06:07.095Z,75.96
2023-01-03T05:08:34.973Z,76.03
2023-01-03T05:11:03.044Z,76.30
2023-01-03T05:13:31.000Z,76.41
2023-01-03T05:16:10.575Z,76.50
2023-01-03T05:18:38.829Z,76.58
2023-01-03T05:21:32.896Z,76.61
2023-01-03T05:24:18.485Z,76.59
2023-01-03T05:26:46.040Z,76.65
2023-01-03T05:29:17.717Z,76.84
2023-01-03T05:31:44.955Z,76.77
2023-01-03T05:34:11.976Z,76.86
2023-01-03T05:36:39.180Z,76.72
2023-01-03T05:39:06.463Z,76.71
2023-01-03T05:41:52.787Z,76.80
2023-01-03T05:44:19.754Z,76.57
2023-01-03T05:46:47.628Z,76.58
2023-01-03T05:49:14.609Z,76.83
2023-01-03T05:51:41.611Z,76.81
2023-01-03T05:54:15.003Z,76.70
2023-01-03T05:56:42.669Z,76.71
2023-01-03T05:59:10.428Z,76.74
2023-01-03T06:01:38.161Z,76.67
2023-01-03T06:04:05.270Z,76.69
2023-01-03T06:06:33.788Z,76.64
2023-01-03T06:09:01.474Z,76.59
2023-01-03T06:11:28.750Z,76.59
2023-01-03T06:13:56.004Z,76.45
2023-01-03T06:16:55.590Z,76.48
2023-01-03T06:19:24.707Z,76.46
2023-01-03T06:21:51.784Z,76.35
2023-01-03T06:24:18.797Z,76.22
2023-01-03T06:26:46.152Z,76.06
2023-01-03T06:29:13.192Z,75.93
2023-01-03T06:31:41.702Z,75.87
2023-01-03T06:34:09.447Z,75.83
2023-01-03T06:36:37.111Z,75.91
2023-01-03T06:39:05.513Z,75.86
2023-01-03T06:41:32.835Z,75.89
2023-01-03T06:44:00.947Z,75.88
2023-01-03T06:46:48.515Z,75.88
2023-01-03T06:49:37.538Z,75.95
2023-01-03T06:52:32.018Z,75.96
2023-01-03T06:55:00.493Z,75.87
2023-01-03T06:57:27.949Z,75.96
2023-01-03T06:59:55.395Z,76.07
2023-01-03T07:02:22.825Z,75.97
2023-01-03T07:04:50.348Z,75.85
2023-01-03T07:07:17.566Z,75.78
2023-01-03T07:09:45.334Z,75.77
2023-01-03T07:12:32.160Z,75.69
2023-01-03T07:14:59.103Z,75.67
2023-01-03T07:17:26.346Z,75.65
2023-01-03T07:19:53.386Z,75.58
2023-01-03T07:22:20.707Z,75.41
2023-01-03T07:24:48.012Z,75.34
2023-01-03T07:27:15.278Z,75.18
2023-01-03T07:29:42.497Z,74.87
2023-01-03T07:32:09.861Z,74.72
2023-01-03T07:34:36.897Z,74.78
2023-01-03T07:37:04.664Z,74.67
2023-01-03T07:39:32.257Z,74.33
2023-01-03T07:42:17.845Z,74.23
2023-01-03T07:44:46.083Z,74.14
2023-01-03T07:47:14.469Z,74.06
2023-01-03T07:49:42.222Z,73.88
2023-01-03T07:52:09.690Z,73.83
2023-01-03T07:54:37.049Z,73.84
2023-01-03T07:57:05.519Z,73.67
2023-01-03T07:59:32.732Z,73.56
2023-01-03T08:02:00.000Z,73.43
2023-01-03T08:04:27.856Z,73.31
2023-01-03T08:06:55.348Z,73.32
2023-01-03T08:09:41.258Z,73.26
2023-01-03T08:12:28.962Z,73.30
2023-01-03T08:14:56.807Z,73.31
2023-01-03T08:17:24.611Z,73.13
2023-01-03T08:19:51.736Z,72.97
2023-01-03T08:22:18.796Z,72.96
2023-01-03T08:24:45.821Z,72.93
2023-01-03T08:27:12.882Z,73.05
2023-01-03T08:29:40.352Z,73.15
2023-01-03T08:32:07.608Z,73.20
2023-01-03T08:34:38.348Z,73.25
2023-01-03T08:37:09.850Z,73.28
2023-01-03T08:39:42.420Z,73.33
2023-01-03T08:42:12.606Z,73.36
2023-01-03T08:44:41.150Z,73.40
2023-01-03T08:47:08.834Z,73.46
2023-01-03T08:49:36.807Z,73.53
2023-01-03T08:52:05.477Z,73.72
2023-01-03T08:54:32.747Z,74.12
2023-01-03T08:57:00.111Z,74.31
2023-01-03T08:59:27.252Z,74.70
2023-01-03T09:02:01.617Z,74.90
2023-01-03T09:04:29.225Z,74.82
2023-01-03T09:06:57.096Z,74.51
2023-01-03T09:09:24.337Z,74.39
2023-01-03T09:11:52.188Z,73.92
2023-01-03T09:14:19.864Z,73.41
2023-01-03T09:16:49.321Z,73.43
2023-01-03T09:19:17.485Z,73.37
2023-01-03T09:21:44.581Z,73.39
2023-01-03T09:24:11.972Z,73.47
2023-01-03T09:26:39.931Z,73.52
2023-01-03T09:29:07.178Z,73.48
2023-01-03T09:31:35.164Z,73.42
2023-01-03T09:34:04.906Z,73.53
2023-01-03T09:36:34.452Z,73.58
2023-01-03T09:39:01.615Z,73.72
2023-01-03T09:41:28.957Z,74.08
2023-01-03T09:44:00.856Z,74.03
2023-01-03T09:46:30.697Z,73.64
2023-01-03T09:48:59.964Z,73.50
2023-01-03T09:51:53.974Z,73.11
2023-01-03T09:54:55.353Z,72.60
2023-01-03T09:57:43.516Z,72.63
2023-01-03T10:00:51.860Z,72.52
2023-01-03T10:03:37.669Z,72.70
2023-01-03T10:06:08.273Z,72.30
2023-01-03T10:08:51.315Z,72.29
2023-01-03T10:11:26.047Z,72.74
2023-01-03T10:14:11.816Z,72.81
2023-01-03T10:17:16.929Z,72.16
2023-01-03T10:19:57.414Z,71.19
2023-01-03T10:22:30.622Z,70.22
2023-01-03T10:25:05.014Z,70.71
2023-01-03T10:27:44.973Z,70.20
2023-01-03T10:30:16.263Z,69.78
2023-01-03T10:33:02.376Z,70.03
2023-01-03T10:35:33.382Z,69.99
2023-01-03T10:38:01.103Z,69.82
2023-01-03T10:40:42.619Z,69.83
2023-01-03T10:43:45.863Z,69.69
2023-01-03T10:46:18.427Z,69.42
2023-01-03T10:51:43.006Z,68.95
2023-01-03T10:54:17.809Z,68.79
2023-01-03T10:56:49.956Z,68.47
2023-01-03T10:59:26.266Z,68.05
2023-01-03T11:02:08.375Z,67.15
2023-01-03T11:04:35.850Z,66.62
2023-01-03T11:07:08.696Z,66.18
2023-01-03T11:09:50.460Z,65.55
2023-01-03T11:12:38.094Z,64.39
2023-01-03T11:15:37.978Z,63.93
2023-01-03T11:18:20.240Z,62.45
2023-01-03T11:21:11.822Z,62.96
2023-01-03T11:23:55.354Z,63.04
2023-01-03T11:26:59.593Z,63.36
2023-01-03T11:30:18.940Z,63.58
2023-01-03T11:33:05.142Z,63.60
2023-01-03T11:36:10.799Z,63.98
2023-01-03T11:39:00.894Z,63.75
2023-01-03T11:42:02.243Z,64.33
2023-01-03T11:44:41.379Z,65.03
2023-01-03T11:47:50.200Z,65.61
2023-01-03T11:51:02.713Z,65.60
2023-01-03T11:53:49.928Z,65.98
2023-01-03T11:56:35.402Z,66.14
2023-01-03T11:59:56.609Z,65.57
2023-01-03T12:02:35.893Z,65.51
2023-01-03T12:05:24.722Z,64.81
2023-01-03T12:08:16.363Z,64.76
2023-01-03T12:10:59.354Z,64.59
2023-01-03T12:13:54.386Z,64.44
2023-01-03T12:16:29.397Z,64.64
2023-01-03T12:19:05.675Z,64.11
2023-01-03T12:21:48.019Z,62.99
2023-01-03T12:24:29.550Z,63.17
2023-01-03T12:27:04.600Z,63.25
2023-01-03T12:29:50.997Z,63.10
2023-01-03T12:32:53.841Z,63.61
2023-01-03T12:35:24.837Z,63.91
2023-01-03T12:37:52.576Z,63.54
2023-01-03T12:40:22.901Z,63.83
2023-01-03T12:42:55.796Z,64.22
2023-01-03T12:45:32.819Z,64.29
2023-01-03T12:48:08.834Z,64.43
2023-01-03T12:50:50.935Z,64.28
2023-01-03T12:53:25.255Z,64.25
2023-01-03T12:56:06.630Z,64.26
2023-01-03T12:58:41.376Z,64.52
2023-01-03T13:01:15.206Z,64.89
2023-01-03T13:03:52.226Z,65.05
2023-01-03T13:06:19.294Z,65.54
2023-01-03T13:08:52.285Z,65.69
2023-01-03T13:11:35.428Z,65.63
2023-01-03T13:14:17.922Z,65.30
2023-01-03T13:16:48.309Z,65.44
2023-01-03T13:19:35.776Z,65.43
2023-01-03T13:22:34.492Z,65.32
2023-01-03T13:25:26.392Z,65.36
2023-01-03T13:27:57.426Z,65.56
2023-01-03T13:30:31.755Z,65.74
2023-01-03T13:33:04.940Z,65.78
2023-01-03T13:35:56.770Z,65.93
2023-01-03T13:38:29.131Z,65.94
2023-01-03T13:41:18.831Z,65.77
2023-01-03T13:43:50.231Z,65.60
2023-01-03T13:46:30.829Z,65.59
2023-01-03T13:49:07.560Z,65.53
2023-01-03T13:51:40.700Z,65.58
2023-01-03T13:54:10.935Z,65.65
2023-01-03T13:56:43.989Z,65.59
2023-01-03T13:59:14.352Z,65.59
2023-01-03T14:01:43.953Z,65.60
2023-01-03T14:04:54.415Z,65.62
2023-01-03T14:07:50.660Z,65.84
2023-01-03T14:10:32.967Z,65.76
2023-01-03T14:13:12.188Z,65.94
2023-01-03T14:15:39.303Z,66.06
2023-01-03T14:18:25.729Z,66.31
2023-01-03T14:20:56.528Z,66.60
2023-01-03T14:26:16.886Z,67.24
2023-01-03T14:28:52.917Z,67.57
2023-01-03T14:31:23.705Z,67.79
2023-01-03T14:34:02.409Z,68.06
2023-01-03T14:36:29.556Z,68.41
2023-01-03T14:39:01.918Z,68.53
2023-01-03T14:41:35.681Z,68.75
2023-01-03T14:44:23.626Z,68.84
2023-01-03T14:46:54.745Z,68.89
2023-01-03T14:49:41.227Z,68.88
2023-01-03T14:52:25.474Z,69.25
2023-01-03T14:55:00.112Z,69.56
2023-01-03T14:57:31.535Z,69.86
2023-01-03T15:00:01.073Z,69.96
2023-01-03T15:02:33.731Z,69.87
2023-01-03T15:05:02.305Z,69.72
2023-01-03T15:07:42.863Z,69.83
2023-01-03T15:10:10.218Z,69.79
2023-01-03T15:12:49.177Z,69.74
2023-01-03T15:15:19.564Z,69.94
2023-01-03T15:17:50.015Z,70.00
2023-01-03T15:20:20.792Z,70.00
2023-01-03T15:22:48.156Z,69.98
2023-01-03T15:25:26.353Z,69.79
2023-01-03T15:27:54.595Z,69.63
2023-01-03T15:30:25.304Z,69.58
2023-01-03T15:32:54.416Z,69.48
2023-01-03T15:35:32.308Z,69.42
2023-01-03T15:38:02.706Z,69.37
2023-01-03T15:40:31.526Z,69.22
2023-01-03T15:43:21.092Z,69.17
2023-01-03T15:45:59.474Z,69.01
2023-01-03T15:48:28.009Z,68.95
2023-01-03T15:50:58.192Z,68.98
2023-01-03T15:53:44.097Z,68.95
2023-01-03T15:56:24.025Z,68.78
2023-01-03T15:58:55.227Z,68.90
2023-01-03T16:01:24.636Z,68.85
2023-01-03T16:03:54.179Z,68.42
2023-01-03T16:06:23.438Z,68.39
2023-01-03T16:08:53.052Z,68.33
2023-01-03T16:11:31.498Z,68.34
2023-01-03T16:14:07.740Z,68.24
2023-01-03T16:16:41.557Z,68.24
2023-01-03T16:19:20.417Z,68.14
2023-01-03T16:22:24.507Z,68.08
2023-01-03T16:24:43.669Z,68.00
2023-01-03T16:27:21.499Z,67.99
2023-01-03T16:29:49.612Z,67.87
2023-01-03T16:32:23.403Z,67.97
2023-01-03T16:34:52.923Z,67.91
2023-01-03T16:37:21.146Z,67.96
2023-01-03T16:39:48.990Z,68.02
2023-01-03T16:42:17.798Z,67.88
2023-01-03T16:44:47.414Z,67.89
2023-01-03T16:47:22.814Z,68.00
2023-01-03T16:49:57.150Z,68.10
2023-01-03T16:52:27.767Z,68.05
2023-01-03T16:54:56.168Z,68.06
2023-01-03T16:57:24.750Z,68.02
2023-01-03T16:59:53.660Z,68.02
2023-01-03T17:02:22.041Z,67.91
2023-01-03T17:04:52.623Z,67.93
2023-01-03T17:07:25.057Z,68.06
2023-01-03T17:09:53.910Z,67.93
2023-01-03T17:12:24.239Z,68.13
2023-01-03T17:14:53.294Z,68.18
2023-01-03T17:17:23.036Z,68.24
2023-01-03T17:20:06.659Z,68.19
2023-01-03T17:22:34.935Z,68.18
2023-01-03T17:25:02.284Z,68.37
2023-01-03T17:27:32.898Z,68.34
2023-01-03T17:30:06.598Z,68.46
2023-01-03T17:32:34.084Z,68.40
2023-01-03T17:35:04.516Z,68.53
2023-01-03T17:37:40.895Z,68.33
2023-01-03T17:40:32.943Z,68.53
2023-01-03T17:43:02.264Z,68.94
2023-01-03T17:45:48.915Z,69.12
2023-01-03T17:48:35.444Z,69.27
2023-01-03T17:51:03.777Z,69.28
2023-01-03T17:53:31.592Z,69.29
2023-01-03T17:55:59.234Z,69.13
2023-01-03T17:58:35.616Z,69.16
2023-01-03T18:01:05.369Z,69.24
2023-01-03T18:03:33.237Z,69.61
2023-01-03T18:06:06.297Z,69.69
2023-01-03T18:08:34.404Z,69.78
2023-01-03T18:11:01.719Z,69.93
2023-01-03T18:13:36.032Z,69.98
2023-01-03T18:16:04.488Z,70.08
2023-01-03T18:18:32.657Z,69.89
2023-01-03T18:21:00.537Z,69.84
2023-01-03T18:23:33.315Z,69.83
2023-01-03T18:26:11.037Z,69.82
2023-01-03T18:28:38.490Z,69.83
2023-01-03T18:31:06.843Z,69.88
2023-01-03T18:33:34.429Z,69.70
2023-01-03T18:36:02.931Z,69.83
2023-01-03T18:38:41.368Z,69.88
2023-01-03T18:41:17.561Z,69.90
2023-01-03T18:43:45.330Z,69.94
2023-01-03T18:46:15.735Z,70.12
2023-01-03T18:48:44.402Z,70.09
2023-01-03T18:51:17.712Z,70.04
2023-01-03T18:53:53.307Z,70.19
2023-01-03T18:56:43.423Z,70.10
2023-01-03T18:59:26.369Z,70.00
2023-01-03T19:01:55.944Z,69.86
2023-01-03T19:04:24.182Z,69.98
2023-01-03T19:06:52.276Z,69.89
2023-01-03T19:09:26.387Z,69.86
2023-01-03T19:11:54.906Z,70.08
2023-01-03T19:14:24.329Z,70.06
2023-01-03T19:16:53.451Z,70.06
2023-01-03T19:19:21.339Z,69.97
2023-01-03T19:21:49.345Z,70.05
2023-01-03T19:24:34.729Z,70.06
2023-01-03T19:27:11.333Z,70.18
2023-01-03T19:29:40.137Z,70.15
2023-01-03T19:32:20.188Z,70.21
2023-01-03T19:34:47.738Z,70.17
2023-01-03T19:37:16.825Z,70.20
2023-01-03T19:39:44.292Z,70.20
2023-01-03T19:42:33.259Z,70.10
2023-01-03T19:45:07.568Z,69.96
2023-01-03T19:47:35.602Z,69.89
2023-01-03T19:50:28.219Z,69.79
2023-01-03T19:52:56.590Z,69.72
2023-01-03T19:55:30.625Z,69.73
2023-01-03T19:58:05.727Z,69.77
2023-01-03T20:00:37.923Z,69.80
2023-01-03T20:03:13.894Z,69.76
2023-01-03T20:05:42.317Z,69.70
2023-01-03T20:08:12.715Z,69.64
2023-01-03T20:10:45.179Z,69.58
2023-01-03T20:13:35.742Z,69.56
2023-01-03T20:16:05.161Z,69.34
2023-01-03T20:18:35.894Z,69.08
2023-01-03T20:21:10.797Z,68.98
2023-01-03T20:23:43.593Z,69.18
2023-01-03T20:26:28.632Z,69.27
2023-01-03T20:29:00.756Z,69.25
2023-01-03T20:31:29.738Z,69.16
2023-01-03T20:33:59.177Z,69.16
2023-01-03T20:36:36.103Z,69.02
2023-01-03T20:39:04.609Z,69.32
2023-01-03T20:41:38.573Z,69.36
2023-01-03T20:44:10.293Z,69.38
2023-01-03T20:46:39.571Z,69.27
2023-01-03T20:49:15.983Z,69.29
2023-01-03T20:51:44.500Z,69.24
2023-01-03T20:54:12.080Z,69.19
2023-01-03T20:56:40.018Z,69.23
2023-01-03T20:59:08.646Z,69.14
2023-01-03T21:01:37.766Z,69.01
2023-01-03T21:04:06.692Z,68.97
2023-01-03T21:06:34.144Z,68.84
2023-01-03T21:09:01.813Z,68.87
2023-01-03T21:11:44.103Z,68.76
2023-01-03T21:14:14.466Z,68.94
2023-01-03T21:16:48.792Z,68.71
2023-01-03T21:19:21.530Z,68.76
2023-01-03T21:21:52.461Z,68.58
2023-01-03T21:24:22.385Z,68.35
2023-01-03T21:26:49.731Z,68.29
2023-01-03T21:29:17.083Z,68.26
2023-01-03T21:31:45.695Z,68.15
2023-01-03T21:34:19.943Z,68.36
2023-01-03T21:36:48.656Z,68.39
2023-01-03T21:39:16.780Z,68.54
2023-01-03T21:42:03.814Z,68.67
2023-01-03T21:44:31.641Z,68.64
2023-01-03T21:46:59.821Z,68.65
2023-01-03T21:49:28.477Z,68.65
2023-01-03T21:51:55.740Z,68.69
2023-01-03T21:54:23.295Z,68.45
2023-01-03T21:56:51.483Z,68.42
2023-01-03T21:59:19.358Z,68.43
2023-01-03T22:02:05.805Z,68.57
2023-01-03T22:04:34.275Z,68.58
2023-01-03T22:07:01.938Z,68.55
2023-01-03T22:09:49.224Z,68.78
2023-01-03T22:12:17.517Z,68.75
2023-01-03T22:14:45.651Z,68.67
2023-01-03T22:17:12.756Z,68.66
2023-01-03T22:19:39.972Z,68.55
2023-01-03T22:22:07.233Z,68.36
2023-01-03T22:24:34.371Z,68.35
2023-01-03T22:27:01.533Z,68.10
2023-01-03T22:29:28.457Z,68.26
2023-01-03T22:31:55.569Z,68.35
2023-01-03T22:34:22.966Z,68.44
2023-01-03T22:36:49.888Z,68.47
2023-01-03T22:39:16.943Z,68.54
2023-01-03T22:41:43.935Z,68.50
2023-01-03T22:44:10.865Z,68.52
2023-01-03T22:46:38.956Z,68.73
2023-01-03T22:49:06.130Z,68.56
2023-01-03T22:51:33.021Z,68.50
2023-01-03T22:54:00.163Z,68.56
2023-01-03T22:56:27.267Z,68.48
2023-01-03T22:58:54.047Z,68.38
2023-01-03T23:01:26.818Z,68.47
2023-01-03T23:03:55.007Z,68.48
2023-01-03T23:06:21.829Z,68.43
2023-01-03T23:08:51.762Z,68.52
2023-01-03T23:11:41.762Z,68.62
2023-01-03T23:14:17.810Z,68.72
2023-01-03T23:16:46.037Z,68.81
2023-01-03T23:19:15.699Z,68.87
2023-01-03T23:21:44.892Z,68.90
2023-01-03T23:24:17.767Z,69.23
2023-01-03T23:26:45.233Z,69.49
2023-01-03T23:29:14.460Z,69.62
2023-01-03T23:31:42.298Z,69.66
2023-01-03T23:34:12.934Z,69.81
2023-01-03T23:36:42.330Z,70.03
2023-01-03T23:39:14.701Z,70.11
2023-01-03T23:41:42.994Z,70.27
2023-01-03T23:44:11.555Z,70.36
2023-01-03T23:46:38.716Z,70.68
2023-01-03T23:49:05.594Z,70.96
2023-01-03T23:51:32.513Z,71.15
2023-01-03T23:53:59.868Z,71.03
2023-01-03T23:56:26.918Z,71.07
2023-01-03T23:58:54.053Z,70.99
